Bucks, AL (36512)

3:01 PM CST on February 12, 2016 (GMT -0600)
APRSWXNET | | Change Station
CLOSE
Current Station
Personal Weather Station
Location: Calvert, AL
Elevation: 49 ft
Nearby Weather Stations

Elev 49 ft 31.15 °N, 88.00 °W | Updated 33 minutes ago

Clear
Clear
75 °F
Feels Like 78 °F
N
1
Wind Variable Wind from SW
Gusts 7.0 mph

Today
High -- | Low -- °F
--% Chance of Precip.
Yesterday
High -- | Low -- °F
Precip. -- in
Pressure 30.14 in
Visibility 10.0 miles
Clouds Few 5000 ft
Heat Index 78 °F
Dew Point 53 °F
Humidity 46%
Rainfall in
Snow Depth Not available.
6:36 AM 5:36 PM
Waxing Crescent, 23% visible
METAR KMOB 122056Z 29008KT 10SM FEW050 23/12 A3014 RMK AO2 SLP204 T02330117 56021
Pressure 30.14 in
Visibility 10.0 miles
Clouds Few 5000 ft
Heat Index 78 °F
Dew Point 53 °F
Humidity 46%
Rainfall in
Snow Depth Not available.
6:36 AM 5:36 PM
Waxing Crescent, 23% visible
METAR KMOB 122056Z 29008KT 10SM FEW050 23/12 A3014 RMK AO2 SLP204 T02330117 56021

10-Day Weather Forecast

Almanac

Astronomy

Feb. 12, 2016 Rise Set
Actual Time
Civil Twilight
Nautical Twilight
Astronomical Twilight
Moon
Length of Visible Light
Length of Day
Tomorrow will be .
, % of the Moon is Illuminated

Today's Extremes

State Highs State Lows

Community

WunderPhotos

Upload Photos

1,892,397 photos uploaded!

WunderBlog® & News

Nearby

Air Quality

  Air Quality AQ Index Pollutant
Not available.

Snow Depth

Station Depth Elevation

Earthquake Activity

City Distance Mag. Time & Date
Minimum magnitude displayed is 2.5.

Coastal Water Temperatures

Place Temperature

Stations

Nearby Weather Stations

Station Location Temp. Windchill Dew Point Humidity Wind Precip. Elev Updated Type
                   

Watches & Warnings

There are currently no watches in effect.